Time;durP1;ratioP1;P1;durP2;ratioP2;P2;SDS_P1;SDS_P2;PMS_P1;PMS_P2;Temp;Humidity;BMP_temperature;BMP_pressure;BME280_temperature;BME280_humidity;BME280_pressure;Samples;Min_cycle;Max_cycle;Signal;HPM_P1;HPM_P2
2023/04/18 00:02:17;;;;;;;3.15;2.08;;;;;;;14.25;59.62;99608.72;7738637;32;40824;-76
2023/04/18 00:06:35;;;;;;;5.72;2.30;;;;;;;14.11;60.25;99610.56;7737054;32;37887;-76
2023/04/18 00:10:52;;;;;;;3.92;2.40;;;;;;;14.01;61.33;99606.91;7738730;32;37283;-76
2023/04/18 00:15:10;;;;;;;4.50;2.50;;;;;;;13.98;60.78;99599.28;7738540;32;39508;-75
2023/04/18 00:19:26;;;;;;;4.37;2.60;;;;;;;13.92;61.15;99595.00;7738471;32;39589;-75
2023/04/18 00:23:44;;;;;;;4.37;2.50;;;;;;;13.97;61.18;99594.09;7724335;32;37936;-75
2023/04/18 00:28:01;;;;;;;4.25;2.60;;;;;;;14.18;60.42;99603.63;7724557;32;36978;-75
2023/04/18 00:32:18;;;;;;;3.58;2.45;;;;;;;14.16;59.67;99597.63;7738425;32;39426;-76
2023/04/18 00:36:34;;;;;;;3.35;2.33;;;;;;;14.43;58.93;99594.09;7736807;32;40596;-75
2023/04/18 00:40:51;;;;;;;4.93;2.72;;;;;;;14.28;59.11;99600.69;7738194;32;38740;-75
2023/04/18 00:45:07;;;;;;;6.03;2.42;;;;;;;14.17;59.44;99592.94;7737662;32;37287;-76
2023/04/18 00:49:24;;;;;;;5.05;2.67;;;;;;;14.23;58.88;99592.56;7738101;32;39371;-76
2023/04/18 00:53:42;;;;;;;3.97;2.53;;;;;;;14.25;59.13;99595.81;7707740;32;39774;-76
2023/04/18 00:57:58;;;;;;;4.05;2.58;;;;;;;14.32;58.70;99595.41;7712048;32;38653;-74
2023/04/18 01:02:16;;;;;;;3.83;2.50;;;;;;;14.26;58.83;99586.47;7738041;32;37823;-75
2023/04/18 01:06:32;;;;;;;3.95;2.58;;;;;;;14.17;59.72;99591.00;7724278;32;40479;-75
2023/04/18 01:10:49;;;;;;;4.68;2.70;;;;;;;14.19;59.67;99591.50;7737849;32;39791;-75
2023/04/18 01:15:06;;;;;;;3.87;2.72;;;;;;;14.38;59.30;99593.38;7737701;32;38665;-76
2023/04/18 01:19:22;;;;;;;4.32;2.58;;;;;;;14.30;59.81;99599.56;7737677;32;37031;-75
2023/04/18 01:23:39;;;;;;;5.00;2.70;;;;;;;14.26;59.71;99596.59;7737635;32;39970;-75
2023/04/18 01:27:57;;;;;;;5.95;2.92;;;;;;;14.24;59.42;99598.84;7723765;32;40772;-75
2023/04/18 01:32:16;;;;;;;4.72;2.85;;;;;;;14.18;60.24;99600.88;7710612;32;35761;-75
2023/04/18 01:36:32;;;;;;;4.43;2.83;;;;;;;14.37;59.73;99608.25;7710738;32;37974;-75
2023/04/18 01:40:49;;;;;;;5.80;2.53;;;;;;;14.36;59.30;99601.12;7710504;32;40198;-75
2023/04/18 01:45:07;;;;;;;5.18;2.95;;;;;;;14.49;58.62;99605.81;7726734;32;39992;-76
2023/04/18 01:49:23;;;;;;;6.30;2.80;;;;;;;14.44;59.13;99603.16;7736803;32;37866;-76
2023/04/18 01:53:39;;;;;;;5.95;3.00;;;;;;;14.47;59.07;99602.56;7735578;32;37023;-75
2023/04/18 01:57:56;;;;;;;4.62;2.90;;;;;;;14.41;59.06;99598.28;7738521;32;40134;-74
2023/04/18 02:02:12;;;;;;;5.57;2.60;;;;;;;14.37;59.39;99600.00;7739997;32;40939;-76
2023/04/18 02:06:28;;;;;;;6.10;3.12;;;;;;;14.35;58.64;99604.97;7739928;32;37642;-77
2023/04/18 02:10:45;;;;;;;4.55;2.80;;;;;;;14.37;59.15;99606.28;7740194;32;36850;-77
2023/04/18 02:15:01;;;;;;;4.45;2.78;;;;;;;14.33;59.27;99607.19;7740085;32;40499;-77
2023/04/18 02:19:17;;;;;;;5.37;2.90;;;;;;;14.50;58.21;99610.16;7739810;32;40735;-77
2023/04/18 02:23:34;;;;;;;5.20;2.90;;;;;;;14.29;58.59;99606.97;7738094;32;38008;-75
2023/04/18 02:27:50;;;;;;;5.10;2.83;;;;;;;14.39;58.48;99603.25;7712941;32;37107;-75
2023/04/18 02:32:07;;;;;;;5.68;3.10;;;;;;;14.25;58.48;99604.03;7713057;32;39312;-75
2023/04/18 02:36:26;;;;;;;6.12;3.12;;;;;;;14.36;58.27;99604.66;7712858;32;40862;-76
2023/04/18 02:40:42;;;;;;;7.25;3.33;;;;;;;14.24;59.05;99601.59;7712740;32;38211;-76
2023/04/18 02:44:58;;;;;;;9.13;4.00;;;;;;;14.13;59.45;99600.16;7712767;32;38156;-76
2023/04/18 02:49:14;;;;;;;7.43;3.62;;;;;;;14.08;58.77;99606.53;7716887;32;39045;-76
2023/04/18 02:53:31;;;;;;;6.22;3.60;;;;;;;14.19;58.28;99596.19;7725796;32;39973;-75
2023/04/18 02:57:47;;;;;;;4.90;3.12;;;;;;;14.15;57.96;99604.22;7739346;32;37844;-75
2023/04/18 03:02:04;;;;;;;6.78;3.72;;;;;;;14.03;58.67;99604.66;7739415;32;37072;-75
2023/04/18 03:06:20;;;;;;;5.97;3.37;;;;;;;14.07;58.41;99604.87;7739224;32;40076;-75
2023/04/18 03:10:36;;;;;;;9.75;3.83;;;;;;;13.84;58.74;99615.66;7739091;32;39588;-75
2023/04/18 03:14:53;;;;;;;9.18;4.43;;;;;;;13.96;58.73;99617.12;7739230;32;37702;-76
2023/04/18 03:19:09;;;;;;;7.10;4.45;;;;;;;14.19;57.76;99613.44;7736084;32;37135;-75
2023/04/18 03:23:26;;;;;;;9.32;4.20;;;;;;;14.01;58.15;99619.81;7721964;32;40171;-74
2023/04/18 03:27:42;;;;;;;8.15;4.05;;;;;;;14.23;57.50;99614.50;7738986;32;39881;-75
2023/04/18 03:31:58;;;;;;;7.55;4.03;;;;;;;14.13;58.74;99608.38;7738934;32;38593;-75
2023/04/18 03:36:19;;;;;;;6.87;4.03;;;;;;;14.01;58.92;99612.37;7738988;32;36828;-75
2023/04/18 03:40:36;;;;;;;7.35;4.07;;;;;;;14.11;58.41;99613.31;7738974;32;40875;-75
2023/04/18 03:44:52;;;;;;;9.07;4.78;;;;;;;14.06;58.02;99620.53;7732566;32;40736;-75
2023/04/18 03:49:08;;;;;;;9.05;4.37;;;;;;;13.96;58.01;99625.38;7711787;32;37882;-74
2023/04/18 03:53:24;;;;;;;7.20;4.43;;;;;;;14.10;57.90;99615.25;7711946;32;37685;-75
2023/04/18 03:57:41;;;;;;;7.15;4.47;;;;;;;14.10;58.25;99618.00;7711933;32;39931;-75
2023/04/18 04:01:57;;;;;;;8.00;4.03;;;;;;;14.13;58.93;99622.88;7711966;32;40100;-75
2023/04/18 04:06:14;;;;;;;6.90;4.30;;;;;;;14.04;59.10;99620.00;7711722;32;37951;-75
2023/04/18 04:10:30;;;;;;;7.97;4.12;;;;;;;14.16;58.77;99635.16;7736874;32;37786;-75
2023/04/18 04:14:46;;;;;;;6.68;4.07;;;;;;;14.25;58.13;99634.19;7734107;32;39957;-75
2023/04/18 04:19:03;;;;;;;8.40;4.45;;;;;;;14.05;58.58;99646.28;7711044;32;40487;-75
2023/04/18 04:23:21;;;;;;;10.23;4.62;;;;;;;14.17;57.69;99648.56;7711612;32;38620;-75
2023/04/18 04:27:37;;;;;;;7.87;4.68;;;;;;;14.19;57.60;99657.31;7711476;32;37085;-76
2023/04/18 04:31:54;;;;;;;10.32;5.00;;;;;;;14.25;57.79;99660.81;7711602;32;39484;-75
2023/04/18 04:36:13;;;;;;;9.30;4.80;;;;;;;14.32;57.58;99655.75;7711475;32;40588;-75
2023/04/18 04:40:32;;;;;;;8.57;4.70;;;;;;;14.22;57.62;99662.19;7719207;32;37888;-75
2023/04/18 04:44:49;;;;;;;6.82;4.07;;;;;;;14.26;57.26;99666.00;7738402;32;37025;-75
2023/04/18 04:49:05;;;;;;;8.00;4.62;;;;;;;14.19;58.16;99664.72;7737974;32;40073;-76
2023/04/18 04:53:27;;;;;;;8.52;5.10;;;;;;;14.03;59.94;99666.91;7737887;32;40005;-76
2023/04/18 04:57:43;;;;;;;9.57;4.87;;;;;;;14.08;60.07;99677.78;7737946;32;38633;-75
2023/04/18 05:02:00;;;;;;;8.63;4.78;;;;;;;14.20;60.71;99674.59;7737998;32;37141;-75
2023/04/18 05:06:21;;;;;;;8.57;5.12;;;;;;;14.19;60.27;99678.44;7737579;32;39350;-76
2023/04/18 05:10:37;;;;;;;9.35;5.47;;;;;;;14.29;60.59;99681.03;7724350;32;39926;-75
2023/04/18 05:14:53;;;;;;;8.20;4.87;;;;;;;14.27;61.28;99667.59;7715826;32;38703;-75
2023/04/18 05:19:10;;;;;;;7.68;4.60;;;;;;;14.33;61.71;99681.22;7710864;32;37102;-75
2023/04/18 05:23:26;;;;;;;9.90;5.28;;;;;;;14.12;60.59;99678.81;7710932;32;41107;-75
2023/04/18 05:27:44;;;;;;;8.88;5.22;;;;;;;14.34;60.86;99686.41;7710684;32;40765;-75
2023/04/18 05:32:03;;;;;;;9.13;5.07;;;;;;;14.02;61.92;99689.94;7710656;32;37930;-76
2023/04/18 05:36:22;;;;;;;7.55;4.65;;;;;;;14.40;61.66;99692.62;7710554;32;37884;-76
2023/04/18 05:40:38;;;;;;;10.95;5.12;;;;;;;14.38;61.44;99692.91;7696951;32;39129;-75
2023/04/18 05:44:55;;;;;;;9.25;4.60;;;;;;;14.32;62.49;99693.34;7710204;32;39750;-76
2023/04/18 05:49:11;;;;;;;7.85;4.07;;;;;;;14.54;60.42;99700.91;7711531;32;37841;-76
2023/04/18 05:53:28;;;;;;;8.82;4.65;;;;;;;14.52;59.20;99693.00;7736921;32;37836;-76
2023/04/18 05:57:44;;;;;;;7.43;4.03;;;;;;;14.56;59.40;99694.00;7736891;32;40083;-76
2023/04/18 06:02:00;;;;;;;6.03;3.62;;;;;;;14.60;58.08;99689.56;7729027;32;40703;-77
2023/04/18 06:06:16;;;;;;;6.00;3.58;;;;;;;14.78;57.41;99700.78;7736497;32;37690;-79
2023/04/18 06:10:33;;;;;;;6.68;3.45;;;;;;;14.80;57.18;99709.56;7715384;32;37098;-79
2023/04/18 06:14:51;;;;;;;6.12;3.60;;;;;;;14.68;55.67;99704.53;7727189;32;41016;-77
2023/04/18 06:19:07;;;;;;;7.57;4.32;;;;;;;14.70;56.19;99715.22;7736190;32;39958;-79
2023/04/18 06:23:23;;;;;;;7.45;4.12;;;;;;;14.99;56.00;99724.00;7717927;32;38617;-81
2023/04/18 06:27:40;;;;;;;6.85;3.92;;;;;;;15.23;56.57;99722.19;7715222;32;37306;-79
2023/04/18 06:31:56;;;;;;;10.52;3.62;;;;;;;14.93;56.65;99725.22;7735426;32;40104;-68
2023/04/18 06:36:13;;;;;;;7.78;4.22;;;;;;;15.36;60.99;99727.69;7735577;32;39798;-66
2023/04/18 06:40:29;;;;;;;6.55;3.60;;;;;;;15.64;58.19;99729.59;7735821;32;38013;-77
2023/04/18 06:44:45;;;;;;;6.65;3.90;;;;;;;15.66;56.01;99724.63;7737980;32;37908;-78
2023/04/18 06:49:01;;;;;;;6.03;3.83;;;;;;;15.70;54.61;99723.69;7736639;32;39270;-78
2023/04/18 06:53:18;;;;;;;6.00;3.78;;;;;;;15.92;54.31;99727.69;7729391;32;40895;-79
2023/04/18 06:57:34;;;;;;;6.45;3.85;;;;;;;16.10;54.25;99729.44;7739185;32;38654;-78
2023/04/18 07:01:51;;;;;;;8.32;3.90;;;;;;;16.14;54.02;99730.47;7738534;32;36815;-78
2023/04/18 07:06:09;;;;;;;5.22;3.45;;;;;;;16.04;53.29;99722.44;7726445;32;40027;-78
2023/04/18 07:10:25;;;;;;;5.30;3.35;;;;;;;16.40;52.39;99727.13;7736548;32;39924;-78
2023/04/18 07:14:41;;;;;;;6.25;3.45;;;;;;;16.50;51.99;99728.78;7739128;32;38728;-78
2023/04/18 07:18:58;;;;;;;7.03;3.47;;;;;;;16.40;51.70;99727.13;7739079;32;37221;-78
2023/04/18 07:23:14;;;;;;;5.45;3.53;;;;;;;16.39;51.81;99730.97;7737746;32;39861;-78
2023/04/18 07:27:32;;;;;;;6.68;3.50;;;;;;;16.50;50.33;99737.84;7723770;32;39815;-77
2023/04/18 07:31:48;;;;;;;5.28;3.05;;;;;;;16.86;51.66;99748.00;7734804;32;37870;-78
2023/04/18 07:36:05;;;;;;;7.62;3.17;;;;;;;16.66;51.85;99742.97;7730058;32;36855;-79
2023/04/18 07:40:21;;;;;;;5.72;3.15;;;;;;;16.56;51.84;99756.97;7725002;32;38932;-79
2023/04/18 07:44:37;;;;;;;5.78;3.03;;;;;;;16.35;53.59;99757.50;7738646;32;39984;-79
2023/04/18 07:48:54;;;;;;;5.30;3.00;;;;;;;16.15;56.12;99754.06;7738482;32;38390;-77
2023/04/18 07:53:10;;;;;;;6.03;3.05;;;;;;;16.18;57.17;99763.66;7736800;32;37822;-78
2023/04/18 07:57:26;;;;;;;7.68;3.37;;;;;;;16.23;57.06;99763.53;7723789;32;39349;-78
2023/04/18 08:01:43;;;;;;;6.10;3.10;;;;;;;16.18;58.72;99768.31;7738561;32;40729;-77
2023/04/18 08:06:01;;;;;;;5.30;2.90;;;;;;;16.48;57.41;99759.38;7731226;32;188388;-77
2023/04/18 08:10:17;;;;;;;4.85;3.17;;;;;;;16.67;54.75;99755.63;7738420;32;38722;-78
2023/04/18 08:14:33;;;;;;;4.07;2.75;;;;;;;16.55;53.49;99760.88;7738507;32;39380;-77
2023/04/18 08:18:50;;;;;;;7.80;3.17;;;;;;;16.74;53.92;99758.75;7737136;32;39996;-76
2023/04/18 08:23:07;;;;;;;5.70;3.10;;;;;;;16.81;53.39;99753.59;7736152;32;37801;-78
2023/04/18 08:27:28;;;;;;;4.45;2.83;;;;;;;16.83;52.06;99764.28;7725744;32;37043;-77
2023/04/18 08:31:44;;;;;;;9.40;3.08;;;;;;;17.10;52.14;99766.13;7721276;32;39296;-77
2023/04/18 08:36:01;;;;;;;3.60;2.40;;;;;;;17.26;51.57;99761.84;7709810;32;39712;-77
2023/04/18 08:40:17;;;;;;;6.40;3.22;;;;;;;17.53;50.95;99771.00;7710913;32;37803;-77
2023/04/18 08:44:33;;;;;;;4.60;2.78;;;;;;;17.46;48.55;99767.91;7709938;32;37898;-77
2023/04/18 08:48:50;;;;;;;5.20;2.60;;;;;;;17.71;50.54;99773.81;7711273;32;39465;-77
2023/04/18 08:53:06;;;;;;;3.15;2.30;;;;;;;18.03;48.43;99761.59;7711308;32;40751;-77
2023/04/18 08:57:25;;;;;;;4.03;2.58;;;;;;;17.94;46.89;99764.34;7711357;32;37743;-77
2023/04/18 09:01:56;;;;;;;4.53;2.50;;;;;;;18.31;47.44;99759.31;7711296;32;37944;-77
2023/04/18 09:06:17;;;;;;;4.68;2.47;;;;;;;18.24;46.73;99770.03;7697315;32;39293;-77
2023/04/18 09:10:37;;;;;;;3.70;2.20;;;;;;;18.25;45.08;99770.84;7711040;32;40211;-78
2023/04/18 09:14:58;;;;;;;4.22;2.25;;;;;;;18.49;45.08;99759.31;7711001;32;37841;-77
2023/04/18 09:19:18;;;;;;;5.22;2.05;;;;;;;18.89;44.97;99767.44;7711133;32;37561;-78
2023/04/18 09:23:34;;;;;;;2.87;1.95;;;;;;;18.95;42.92;99769.72;7711034;32;39295;-77
2023/04/18 09:27:51;;;;;;;3.60;2.10;;;;;;;18.61;42.68;99776.06;7710901;32;39824;-78
2023/04/18 09:32:07;;;;;;;3.50;2.03;;;;;;;19.06;41.27;99772.94;7710916;32;37910;-77
2023/04/18 09:36:30;;;;;;;2.83;1.85;;;;;;;18.87;42.65;99775.25;7710664;32;37152;-78
2023/04/18 09:40:46;;;;;;;2.50;1.70;;;;;;;19.16;39.04;99776.47;7710720;32;39301;-78
2023/04/18 09:45:05;;;;;;;3.45;1.77;;;;;;;18.91;39.40;99771.50;7710498;32;39638;-78
2023/04/18 09:49:22;;;;;;;6.12;1.42;;;;;;;19.10;39.46;99762.81;7710223;32;39494;-77
2023/04/18 09:53:39;;;;;;;3.30;2.00;;;;;;;19.31;39.17;99773.16;7710331;32;37021;-78
2023/04/18 09:57:58;;;;;;;2.85;1.70;;;;;;;19.24;37.25;99767.34;7710189;32;39384;-78
2023/04/18 10:02:19;;;;;;;6.68;1.98;;;;;;;19.61;38.79;99759.38;7696925;32;38935;-78
2023/04/18 10:06:38;;;;;;;5.25;1.85;;;;;;;20.21;38.16;99761.00;7709924;32;38792;-78
2023/04/18 10:10:57;;;;;;;4.68;1.73;;;;;;;20.32;37.46;99761.38;7709895;32;36857;-78
2023/04/18 10:15:14;;;;;;;2.72;1.80;;;;;;;20.34;38.05;99753.56;7709956;32;39328;-78
2023/04/18 10:19:31;;;;;;;2.70;1.60;;;;;;;20.45;37.32;99752.00;7698310;32;39757;-77
2023/04/18 10:23:47;;;;;;;3.25;1.70;;;;;;;20.74;36.12;99760.56;7713127;32;38104;-78
2023/04/18 10:28:08;;;;;;;4.40;1.80;;;;;;;21.11;35.92;99750.37;7712989;32;37103;-78
2023/04/18 10:32:26;;;;;;;2.28;1.40;;;;;;;20.72;36.23;99755.34;7713079;32;40027;-78
2023/04/18 10:37:03;;;;;;;3.67;1.90;;;;;;;20.82;35.71;99760.47;7712905;32;39252;-78
2023/04/18 10:41:28;;;;;;;2.55;1.60;;;;;;;21.01;36.59;99754.41;7712829;32;38768;-78
2023/04/18 10:46:04;;;;;;;2.90;1.60;;;;;;;21.38;35.59;99751.66;7712938;32;36806;-78
2023/04/18 10:50:25;;;;;;;3.03;1.62;;;;;;;21.64;33.07;99742.22;7712702;32;39848;-78
2023/04/18 10:54:54;;;;;;;4.18;1.70;;;;;;;21.76;34.98;99739.44;7712652;32;39983;-78
2023/04/18 10:59:15;;;;;;;8.43;2.10;;;;;;;21.64;33.34;99744.22;7699595;32;38005;-79
2023/04/18 11:03:34;;;;;;;6.95;1.75;;;;;;;21.77;33.16;99745.81;7714205;32;37011;-78
2023/04/18 11:07:51;;;;;;;2.58;1.60;;;;;;;21.67;34.97;99733.22;7708185;32;39183;-79
2023/04/18 11:12:10;;;;;;;2.70;1.48;;;;;;;22.43;33.29;99733.53;7698821;32;39992;-78
2023/04/18 11:16:32;;;;;;;2.15;1.45;;;;;;;22.48;31.92;99730.50;7721747;32;36933;-76
2023/04/18 11:20:49;;;;;;;2.85;1.67;;;;;;;21.74;31.73;99725.13;7723029;32;37039;-78
2023/04/18 11:25:09;;;;;;;4.60;1.80;;;;;;;23.10;34.33;99721.06;7720500;32;40990;-78
2023/04/18 11:29:27;;;;;;;2.80;1.65;;;;;;;23.33;30.20;99718.47;7734205;32;39950;-77
2023/04/18 11:33:46;;;;;;;6.53;1.60;;;;;;;23.44;30.94;99711.19;7737612;32;38620;-70
2023/04/18 11:38:02;;;;;;;4.15;1.65;;;;;;;23.70;30.45;99704.22;7738992;32;37081;-70
2023/04/18 11:42:19;;;;;;;2.33;1.25;;;;;;;22.77;31.18;99708.28;7728767;32;39138;-69
2023/04/18 11:46:38;;;;;;;2.72;1.70;;;;;;;22.76;30.98;99709.44;7720259;32;39975;-78
2023/04/18 11:50:55;;;;;;;2.95;1.33;;;;;;;23.00;30.46;99700.94;7738618;32;38550;-79
2023/04/18 11:55:13;;;;;;;2.37;1.08;;;;;;;22.40;29.33;99706.47;7723575;32;38007;-78
2023/04/18 11:59:29;;;;;;;4.32;1.33;;;;;;;22.79;29.95;99706.75;7738918;32;38453;-78
2023/04/18 12:04:05;;;;;;;3.53;1.35;;;;;;;22.33;29.05;99700.72;7718253;32;40891;-79
2023/04/18 12:08:23;;;;;;;2.85;1.20;;;;;;;22.95;26.27;99692.84;7707158;32;38671;-78
2023/04/18 12:12:48;;;;;;;1.95;1.08;;;;;;;23.18;27.00;99698.66;7738582;32;37106;-78
2023/04/18 12:17:05;;;;;;;6.22;1.02;;;;;;;23.05;24.76;99703.47;7725464;32;39873;-79
2023/04/18 12:21:21;;;;;;;6.55;1.87;;;;;;;22.53;25.67;99706.44;7736621;32;39700;-80
2023/04/18 12:25:37;;;;;;;1.95;0.80;;;;;;;22.48;25.93;99694.41;7709561;32;38655;-79
2023/04/18 12:29:53;;;;;;;2.20;1.08;;;;;;;22.32;26.30;99699.13;7714840;32;37110;-79
2023/04/18 12:34:10;;;;;;;3.15;1.08;;;;;;;22.21;26.19;99703.50;7711583;32;40072;-79
2023/04/18 12:38:27;;;;;;;3.45;1.00;;;;;;;22.69;26.05;99699.72;7711579;32;40919;-79
2023/04/18 12:42:44;;;;;;;2.47;1.15;;;;;;;22.55;26.54;99701.31;7710713;32;38664;-80
2023/04/18 12:47:00;;;;;;;1.80;1.02;;;;;;;22.36;26.59;99704.78;7711362;32;36932;-78
2023/04/18 12:51:16;;;;;;;3.15;1.15;;;;;;;22.26;26.40;99700.47;7711248;32;39143;-79
2023/04/18 12:55:33;;;;;;;17.60;10.57;;;;;;;22.59;25.54;99700.25;7711335;32;39786;-79
2023/04/18 12:59:49;;;;;;;3.67;1.23;;;;;;;22.24;26.32;99691.72;7710165;32;38731;-77
2023/04/18 13:04:05;;;;;;;1.95;1.02;;;;;;;22.96;26.90;99694.47;7711209;32;36982;-77
2023/04/18 13:08:28;;;;;;;1.70;1.00;;;;;;;23.42;25.11;99689.31;7711139;32;40251;-77
2023/04/18 13:12:45;;;;;;;2.25;1.08;;;;;;;23.33;23.21;99685.09;7711040;32;39817;-77
2023/04/18 13:17:01;;;;;;;5.70;1.15;;;;;;;23.19;24.82;99686.34;7710895;32;37884;-77
2023/04/18 13:21:18;;;;;;;1.77;0.98;;;;;;;23.84;24.29;99687.87;7711023;32;37102;-78
2023/04/18 13:25:34;;;;;;;4.05;1.60;;;;;;;24.13;24.66;99672.59;7710914;32;40145;-78
2023/04/18 13:29:50;;;;;;;5.10;1.52;;;;;;;24.76;23.37;99670.63;7710673;32;39927;-78
2023/04/18 13:34:07;;;;;;;5.18;1.55;;;;;;;25.53;22.31;99668.75;7710772;32;38541;-78
2023/04/18 13:38:23;;;;;;;2.33;1.00;;;;;;;25.85;19.57;99666.41;7710751;32;36967;-79
2023/04/18 13:42:39;;;;;;;2.83;1.23;;;;;;;26.14;22.42;99672.38;7696894;32;39279;-78
2023/04/18 13:46:56;;;;;;;3.03;1.10;;;;;;;26.39;19.03;99663.50;7710355;32;40120;-69
2023/04/18 13:51:12;;;;;;;1.95;0.93;;;;;;;25.58;19.63;99676.78;7735585;32;37989;-77
2023/04/18 13:55:28;;;;;;;5.07;1.40;;;;;;;25.16;20.60;99672.13;7735809;32;37826;-77
2023/04/18 13:59:44;;;;;;;6.28;1.15;;;;;;;25.13;21.10;99681.25;7723171;32;39988;-78
2023/04/18 14:04:01;;;;;;;3.83;1.20;;;;;;;24.80;21.20;99679.06;7733259;32;39738;-78
2023/04/18 14:08:17;;;;;;;2.05;1.17;;;;;;;24.93;21.61;99698.03;7735834;32;37986;-77
2023/04/18 14:12:34;;;;;;;4.50;1.48;;;;;;;25.03;19.35;99681.87;7736406;32;37909;-77
2023/04/18 14:16:50;;;;;;;4.45;1.30;;;;;;;25.58;19.34;99687.16;7735736;32;39365;-78
2023/04/18 14:21:06;;;;;;;2.30;1.27;;;;;;;26.08;19.48;99682.28;7721466;32;40703;-78
2023/04/18 14:25:23;;;;;;;4.60;1.50;;;;;;;26.20;19.37;99678.44;7708941;32;37981;-78
2023/04/18 14:29:39;;;;;;;3.00;1.15;;;;;;;26.61;18.43;99673.72;7708653;32;37806;-77
2023/04/18 14:33:56;;;;;;;2.47;1.42;;;;;;;26.56;18.43;99679.66;7709324;32;40238;-78
2023/04/18 14:38:12;;;;;;;2.78;1.10;;;;;;;26.92;18.50;99676.44;7708303;32;40143;-77
2023/04/18 14:42:28;;;;;;;2.28;1.42;;;;;;;27.15;17.81;99670.66;7709003;32;38546;-78
2023/04/18 14:46:45;;;;;;;6.30;1.40;;;;;;;27.22;18.03;99670.72;7701129;32;37672;-78
2023/04/18 14:51:02;;;;;;;4.70;1.30;;;;;;;27.11;17.39;99664.22;7708154;32;39448;-78
2023/04/18 14:55:18;;;;;;;5.45;1.40;;;;;;;27.15;17.16;99665.84;7708446;32;40135;-77
2023/04/18 14:59:35;;;;;;;2.25;1.30;;;;;;;27.12;17.77;99665.81;7707885;32;37909;-78
2023/04/18 15:03:51;;;;;;;4.35;1.50;;;;;;;27.38;18.46;99662.06;7709385;32;37046;-78
2023/04/18 15:08:10;;;;;;;3.08;1.35;;;;;;;26.38;17.24;99665.47;7727980;32;39352;-78
2023/04/18 15:12:26;;;;;;;3.28;1.65;;;;;;;26.10;18.56;99667.94;7739147;32;40175;-78
2023/04/18 15:16:42;;;;;;;2.50;1.58;;;;;;;25.36;18.96;99667.28;7730373;32;38461;-77
2023/04/18 15:20:59;;;;;;;3.62;1.33;;;;;;;24.93;20.94;99680.50;7711801;32;37659;-77
2023/04/18 15:25:16;;;;;;;5.28;1.27;;;;;;;24.72;20.43;99681.72;7712150;32;39372;-77
2023/04/18 15:29:32;;;;;;;4.37;1.40;;;;;;;24.46;20.72;99678.81;7730201;32;41271;-77
2023/04/18 15:33:49;;;;;;;8.15;1.85;;;;;;;24.33;20.84;99684.53;7724519;32;37695;-77
2023/04/18 15:38:05;;;;;;;4.47;2.03;;;;;;;24.27;20.97;99680.44;7711589;32;37817;-77
2023/04/18 15:42:21;;;;;;;5.87;1.90;;;;;;;24.66;19.83;99674.84;7723526;32;39327;-77
2023/04/18 15:46:38;;;;;;;5.12;1.85;;;;;;;24.51;19.48;99668.19;7730455;32;39984;-78
2023/04/18 15:50:54;;;;;;;3.30;1.50;;;;;;;24.30;19.13;99674.13;7733489;32;38827;-78
2023/04/18 15:55:11;;;;;;;3.87;1.52;;;;;;;24.12;20.45;99675.75;7710391;32;37011;-77
2023/04/18 15:59:29;;;;;;;7.32;1.65;;;;;;;24.14;19.09;99681.75;7710567;32;40070;-78
2023/04/18 16:03:45;;;;;;;3.15;1.70;;;;;;;23.69;20.87;99680.37;7715598;32;39949;-78
2023/04/18 16:08:02;;;;;;;3.95;1.62;;;;;;;23.55;21.63;99686.41;7720949;32;39553;-78
2023/04/18 16:12:18;;;;;;;4.55;2.25;;;;;;;23.23;21.74;99687.25;7722304;32;37705;-77
2023/04/18 16:16:35;;;;;;;2.50;1.80;;;;;;;23.15;23.42;99685.47;7737481;32;40473;-76
2023/04/18 16:20:51;;;;;;;5.65;2.00;;;;;;;22.87;23.37;99696.63;7737821;32;39951;-76
2023/04/18 16:25:08;;;;;;;4.55;2.03;;;;;;;22.43;24.34;99700.22;7732235;32;38629;-76
2023/04/18 16:29:24;;;;;;;3.95;1.85;;;;;;;22.04;25.43;99702.66;7731995;32;37000;-76
2023/04/18 16:33:41;;;;;;;4.18;2.05;;;;;;;21.83;26.16;99705.56;7737367;32;38557;-76
2023/04/18 16:37:57;;;;;;;5.32;2.10;;;;;;;21.86;25.57;99710.41;7738550;32;39923;-76
2023/04/18 16:42:13;;;;;;;6.15;2.50;;;;;;;21.68;26.14;99709.88;7741786;32;38106;-78
2023/04/18 16:46:31;;;;;;;5.57;2.28;;;;;;;20.91;27.40;99713.28;7738849;32;37824;-78
2023/04/18 16:50:47;;;;;;;6.55;2.65;;;;;;;20.65;28.25;99718.28;7738000;32;39522;-77
2023/04/18 16:55:04;;;;;;;7.25;2.25;;;;;;;20.57;28.12;99718.00;7738262;32;40106;-77
2023/04/18 16:59:20;;;;;;;5.80;2.35;;;;;;;20.40;28.73;99713.44;7738194;32;37946;-76
2023/04/18 17:03:36;;;;;;;3.87;2.05;;;;;;;20.29;28.69;99723.31;7737931;32;36867;-77
2023/04/18 17:07:54;;;;;;;4.93;2.00;;;;;;;20.26;28.63;99735.88;7730004;32;39359;-77
2023/04/18 17:12:11;;;;;;;5.97;2.05;;;;;;;20.05;29.67;99741.37;7723445;32;39672;-78
2023/04/18 17:16:27;;;;;;;5.87;2.30;;;;;;;20.15;28.85;99739.38;7737781;32;38095;-78
2023/04/18 17:20:43;;;;;;;5.03;2.55;;;;;;;19.83;29.57;99756.38;7713173;32;37095;-79
2023/04/18 17:25:00;;;;;;;7.32;2.45;;;;;;;19.80;29.15;99747.91;7710991;32;40138;-77
2023/04/18 17:29:17;;;;;;;6.18;2.37;;;;;;;19.70;29.46;99747.13;7710533;32;39742;-78
2023/04/18 17:33:33;;;;;;;5.10;2.25;;;;;;;19.58;28.92;99746.22;7731823;32;39515;-78
2023/04/18 17:37:51;;;;;;;6.80;2.50;;;;;;;19.40;29.59;99753.78;7737452;32;37844;-77
2023/04/18 17:42:08;;;;;;;5.05;2.42;;;;;;;19.43;29.64;99755.88;7737406;32;39477;-77
2023/04/18 17:46:24;;;;;;;6.55;2.35;;;;;;;19.27;31.21;99769.44;7723413;32;40018;-78
2023/04/18 17:50:41;;;;;;;4.43;2.42;;;;;;;19.28;31.25;99762.75;7736915;32;38518;-77
2023/04/18 17:54:58;;;;;;;3.78;2.22;;;;;;;19.16;32.39;99768.19;7737076;32;37073;-77
2023/04/18 17:59:15;;;;;;;8.00;2.60;;;;;;;19.04;32.30;99775.22;7716196;32;39305;-77
2023/04/18 18:03:32;;;;;;;4.70;2.47;;;;;;;19.12;32.58;99779.87;7730629;32;39925;-77
2023/04/18 18:07:48;;;;;;;5.12;2.50;;;;;;;18.90;33.79;99785.63;7716874;32;37805;-77
2023/04/18 18:12:06;;;;;;;9.73;2.87;;;;;;;18.70;34.72;99787.91;7731828;32;37046;-76
2023/04/18 18:16:23;;;;;;;6.87;2.60;;;;;;;18.46;35.26;99788.41;7716362;32;40042;-77
2023/04/18 18:20:42;;;;;;;7.65;2.62;;;;;;;18.33;36.05;99787.44;7731315;32;40794;-77
2023/04/18 18:24:58;;;;;;;12.50;2.60;;;;;;;18.45;36.22;99805.28;7714765;32;38082;-76
2023/04/18 18:29:14;;;;;;;7.53;2.85;;;;;;;18.16;36.83;99802.03;7718149;32;37940;-76
2023/04/18 18:33:31;;;;;;;5.90;2.95;;;;;;;18.00;36.59;99815.44;7732007;32;40069;-76
2023/04/18 18:37:47;;;;;;;7.22;2.80;;;;;;;17.91;35.98;99824.84;7735975;32;39850;-76
2023/04/18 18:42:04;;;;;;;5.32;2.70;;;;;;;17.77;35.37;99822.16;7737068;32;38749;-77
2023/04/18 18:46:20;;;;;;;3.58;2.00;;;;;;;17.60;34.32;99833.94;7738819;32;37042;-76
2023/04/18 18:50:40;;;;;;;5.82;2.42;;;;;;;17.73;32.81;99832.19;7716621;32;40084;-76
2023/04/18 18:54:59;;;;;;;4.35;2.30;;;;;;;17.67;31.87;99839.00;7720884;32;40151;-76
2023/04/18 18:59:16;;;;;;;4.62;2.40;;;;;;;17.14;32.01;99849.72;7739463;32;37708;-76
2023/04/18 19:03:33;;;;;;;9.52;2.97;;;;;;;17.42;31.00;99842.13;7739495;32;36882;-75
2023/04/18 19:07:50;;;;;;;5.10;2.37;;;;;;;17.17;32.06;99845.53;7726141;32;39425;-76
2023/04/18 19:12:10;;;;;;;4.70;2.30;;;;;;;17.18;32.04;99849.94;7725191;32;40819;-76
2023/04/18 19:16:29;;;;;;;6.05;2.53;;;;;;;17.52;31.43;99852.06;7726505;32;37988;-76
2023/04/18 19:20:46;;;;;;;7.72;2.60;;;;;;;17.45;31.18;99854.44;7709266;32;37003;-76
2023/04/18 19:25:02;;;;;;;5.82;2.55;;;;;;;17.24;31.26;99868.75;7719054;32;40310;-76
2023/04/18 19:29:21;;;;;;;6.45;2.45;;;;;;;17.20;31.66;99866.97;7720577;32;40034;-76
2023/04/18 19:33:37;;;;;;;5.57;2.42;;;;;;;17.15;31.74;99873.41;7716114;32;38671;-75
2023/04/18 19:38:00;;;;;;;6.30;2.20;;;;;;;17.47;30.90;99871.47;7710364;32;37031;-76
2023/04/18 19:42:16;;;;;;;6.30;2.58;;;;;;;17.24;30.67;99871.50;7724607;32;39554;-75
2023/04/18 19:46:33;;;;;;;4.87;2.25;;;;;;;17.22;31.69;99873.78;7723369;32;40536;-77
2023/04/18 19:50:49;;;;;;;4.45;2.20;;;;;;;17.03;31.38;99875.91;7721586;32;37880;-75
2023/04/18 19:55:06;;;;;;;5.00;2.30;;;;;;;16.92;32.04;99877.28;7724338;32;37180;-76
2023/04/18 19:59:22;;;;;;;2.70;1.98;;;;;;;16.38;32.59;99877.91;7722003;32;39067;-77
2023/04/18 20:03:39;;;;;;;7.50;2.40;;;;;;;16.67;31.96;99880.28;7719060;32;40664;-76
2023/04/18 20:07:56;;;;;;;5.05;2.47;;;;;;;16.73;31.79;99875.50;7714619;32;36515;-77
2023/04/18 20:12:12;;;;;;;3.20;2.35;;;;;;;16.71;31.95;99872.22;7728108;32;37051;-76